Time;durP1;ratioP1;P1;durP2;ratioP2;P2;SDS_P1;SDS_P2;PMS_P1;PMS_P2;Temp;Humidity;BMP_temperature;BMP_pressure;BME280_temperature;BME280_humidity;BME280_pressure;Samples;Min_cycle;Max_cycle;Signal;HPM_P1;HPM_P2
2021/10/25 00:01:22;;;;;;;0.20;0.20;;;;;;;11.75;100.00;99420.38;6336109;22;20026;-58
2021/10/25 00:04:25;;;;;;;0.20;0.20;;;;;;;11.88;100.00;99417.94;6336471;22;20091;-58
2021/10/25 00:07:28;;;;;;;9.15;0.85;;;;;;;11.98;100.00;99418.50;6336561;22;20458;-58
2021/10/25 00:10:31;;;;;;;0.60;0.25;;;;;;;11.93;100.00;99419.25;6336740;22;20025;-58
2021/10/25 00:13:34;;;;;;;0.82;0.17;;;;;;;11.89;100.00;99415.91;6316806;22;20092;-58
2021/10/25 00:16:38;;;;;;;0.10;0.10;;;;;;;11.96;100.00;99416.22;6336188;22;20033;-58
2021/10/25 00:19:41;;;;;;;0.20;0.17;;;;;;;11.96;100.00;99419.00;6317028;22;20083;-58
2021/10/25 00:22:44;;;;;;;1.10;0.80;;;;;;;11.87;100.00;99410.81;6336176;22;20045;-58
2021/10/25 00:25:47;;;;;;;0.20;0.10;;;;;;;11.90;100.00;99415.41;6336249;22;20099;-58
2021/10/25 00:28:50;;;;;;;11.70;0.40;;;;;;;11.79;100.00;99418.13;6336388;22;20021;-58
2021/10/25 00:31:53;;;;;;;14.82;0.98;;;;;;;11.81;100.00;99415.59;6336409;22;20068;-58
2021/10/25 00:34:56;;;;;;;0.65;0.43;;;;;;;11.79;100.00;99408.97;6336476;22;20022;-58
2021/10/25 00:37:59;;;;;;;3.25;1.05;;;;;;;11.85;100.00;99407.75;6336234;22;20446;-58
2021/10/25 00:41:03;;;;;;;9.38;0.43;;;;;;;11.74;100.00;99410.44;6336356;22;20037;-58
2021/10/25 00:44:06;;;;;;;0.80;0.50;;;;;;;11.73;100.00;99414.50;6335699;22;20493;-58
2021/10/25 00:47:09;;;;;;;0.25;0.20;;;;;;;11.69;100.00;99413.22;6336259;22;20088;-58
2021/10/25 00:50:12;;;;;;;2.65;0.80;;;;;;;11.67;100.00;99408.13;6336485;22;20447;-58
2021/10/25 00:53:14;;;;;;;0.73;0.52;;;;;;;11.67;100.00;99408.13;6298521;22;20076;-57
2021/10/25 00:56:18;;;;;;;0.30;0.30;;;;;;;11.57;100.00;99412.28;6335612;22;20030;-58
2021/10/25 00:59:21;;;;;;;2.17;0.82;;;;;;;11.56;100.00;99413.56;6335723;22;20075;-58
2021/10/25 01:02:24;;;;;;;1.08;0.10;;;;;;;11.56;100.00;99415.59;6335618;22;20025;-58
2021/10/25 01:05:28;;;;;;;12.27;0.30;;;;;;;11.62;100.00;99411.59;6335511;22;20098;-58
2021/10/25 01:08:36;;;;;;;2.20;0.57;;;;;;;11.69;100.00;99402.06;6335794;22;20026;-58
2021/10/25 01:11:43;;;;;;;7.22;0.45;;;;;;;11.63;100.00;99407.53;6335773;22;20083;-58
2021/10/25 01:14:48;;;;;;;0.52;0.52;;;;;;;11.67;100.00;99402.56;6335899;22;20499;-58
2021/10/25 01:17:57;;;;;;;5.32;1.50;;;;;;;11.63;100.00;99407.53;6316865;22;20030;-58
2021/10/25 01:21:00;;;;;;;0.35;0.35;;;;;;;11.58;100.00;99399.91;6335222;22;20025;-58
2021/10/25 01:24:04;;;;;;;0.43;0.43;;;;;;;11.51;100.00;99403.13;6335677;22;20067;-58
2021/10/25 01:27:07;;;;;;;1.85;0.57;;;;;;;11.48;100.00;99406.13;6337525;22;20076;-58
2021/10/25 01:30:10;;;;;;;3.28;0.77;;;;;;;11.66;100.00;99406.56;6337455;22;20029;-58
2021/10/25 01:33:15;;;;;;;0.50;0.50;;;;;;;11.71;100.00;99413.47;6339396;22;20389;-58
2021/10/25 01:36:19;;;;;;;0.63;0.57;;;;;;;11.70;100.00;99407.13;6340289;22;20370;-58
2021/10/25 01:39:22;;;;;;;0.30;0.30;;;;;;;11.68;100.00;99401.28;6340323;22;20026;-58
2021/10/25 01:42:25;;;;;;;0.60;0.22;;;;;;;11.66;100.00;99403.00;6340036;22;20041;-58
2021/10/25 01:45:29;;;;;;;6.53;0.93;;;;;;;11.54;100.00;99399.34;6340282;22;20357;-58
2021/10/25 01:48:33;;;;;;;3.28;0.68;;;;;;;11.49;100.00;99396.50;6339848;22;20080;-58
2021/10/25 01:51:37;;;;;;;0.50;0.25;;;;;;;11.48;100.00;99397.78;6339590;22;20076;-58
2021/10/25 01:54:40;;;;;;;1.15;1.02;;;;;;;11.38;100.00;99402.75;6339850;22;20026;-58
2021/10/25 01:57:43;;;;;;;2.08;0.50;;;;;;;11.27;100.00;99400.59;6340164;22;20026;-58
2021/10/25 02:00:47;;;;;;;0.57;0.30;;;;;;;11.22;100.00;99400.53;6340016;22;20029;-58
2021/10/25 02:03:51;;;;;;;3.45;2.08;;;;;;;11.26;100.00;99389.97;6340180;22;20103;-58
2021/10/25 02:06:54;;;;;;;0.10;0.10;;;;;;;11.34;100.00;99391.03;6340120;22;20037;-59
2021/10/25 02:09:57;;;;;;;1.65;0.30;;;;;;;11.33;100.00;99395.06;6339952;22;20026;-58
2021/10/25 02:13:00;;;;;;;3.13;0.40;;;;;;;11.30;100.00;99396.06;6340305;22;20327;-56
2021/10/25 02:16:03;;;;;;;3.33;0.30;;;;;;;11.28;100.00;99401.38;6340004;22;20088;-56
2021/10/25 02:19:06;;;;;;;0.40;0.40;;;;;;;11.25;100.00;99388.41;6340039;22;20462;-56
2021/10/25 02:22:09;;;;;;;1.95;0.30;;;;;;;11.20;100.00;99391.91;6339915;22;20079;-56
2021/10/25 02:25:12;;;;;;;0.10;0.10;;;;;;;11.34;100.00;99396.63;6339718;22;20021;-57
2021/10/25 02:28:14;;;;;;;3.22;1.27;;;;;;;11.33;100.00;99389.50;6339859;22;20046;-57
2021/10/25 02:31:18;;;;;;;7.18;0.43;;;;;;;11.30;100.00;99393.28;6339672;22;20063;-57
2021/10/25 02:34:21;;;;;;;0.17;0.10;;;;;;;11.30;100.00;99390.50;6339208;22;20053;-57
2021/10/25 02:37:24;;;;;;;0.40;0.20;;;;;;;11.31;100.00;99398.38;6339430;22;20064;-57
2021/10/25 02:40:29;;;;;;;1.48;0.50;;;;;;;11.23;100.00;99400.06;6339555;22;20091;-57
2021/10/25 02:43:33;;;;;;;0.50;0.50;;;;;;;11.24;100.00;99389.69;6339837;22;20025;-57
2021/10/25 02:46:36;;;;;;;1.17;0.73;;;;;;;11.28;100.00;99382.63;6339544;22;20215;-57
2021/10/25 02:49:40;;;;;;;1.45;0.35;;;;;;;11.24;100.00;99386.91;6339498;22;20022;-57
2021/10/25 02:52:43;;;;;;;0.40;0.40;;;;;;;11.24;100.00;99389.69;6339517;22;20053;-57
2021/10/25 02:55:47;;;;;;;3.30;0.70;;;;;;;11.20;100.00;99383.53;6339657;22;20053;-57
2021/10/25 02:58:51;;;;;;;0.13;0.13;;;;;;;11.29;100.00;99380.59;6339651;22;20188;-57
2021/10/25 03:01:54;;;;;;;1.20;0.55;;;;;;;11.35;100.00;99381.41;6339352;22;20025;-57
2021/10/25 03:04:56;;;;;;;2.50;0.50;;;;;;;11.38;100.00;99388.81;6338921;22;20080;-57
2021/10/25 03:07:59;;;;;;;10.43;1.00;;;;;;;11.45;100.00;99391.16;6339243;22;20022;-57
2021/10/25 03:11:02;;;;;;;1.08;0.60;;;;;;;11.48;100.00;99384.56;6339424;22;20026;-57
2021/10/25 03:14:05;;;;;;;0.52;0.25;;;;;;;11.45;100.00;99385.59;6339628;22;20056;-57
2021/10/25 03:17:08;;;;;;;0.20;0.20;;;;;;;11.42;100.00;99390.13;6339467;22;20509;-57
2021/10/25 03:20:12;;;;;;;0.85;0.40;;;;;;;11.31;100.00;99392.03;6339436;22;20026;-57
2021/10/25 03:23:15;;;;;;;0.82;0.38;;;;;;;11.24;100.00;99375.75;6339321;22;20064;-57
2021/10/25 03:26:19;;;;;;;0.10;0.10;;;;;;;11.19;100.00;99382.03;6338482;22;20501;-57
2021/10/25 03:29:22;;;;;;;0.10;0.10;;;;;;;11.14;100.00;99377.16;6338674;22;20071;-58
2021/10/25 03:32:26;;;;;;;1.67;0.50;;;;;;;11.10;100.00;99374.59;6338961;22;20476;-57
2021/10/25 03:35:29;;;;;;;0.85;0.50;;;;;;;11.03;100.00;99382.59;6338918;22;20080;-57
2021/10/25 03:38:35;;;;;;;1.20;0.52;;;;;;;10.94;100.00;99375.16;6339114;22;20061;-57
2021/10/25 03:41:42;;;;;;;2.63;0.57;;;;;;;11.02;100.00;99378.31;6339237;22;20099;-57
2021/10/25 03:44:58;;;;;;;0.73;0.40;;;;;;;11.05;100.00;99368.94;6339304;22;20631;-57
2021/10/25 03:51:07;;;;;;;8.90;0.47;;;;;;;11.20;100.00;99372.38;6339357;22;20026;-57
2021/10/25 04:27:31;;;;;;;;;;;;;;;11.77;100.00;99369.66;6339031;22;20022;-57
2021/10/25 04:30:35;;;;;;;0.40;0.20;;;;;;;11.69;100.00;99368.56;6338069;22;19963;-57
2021/10/25 04:33:38;;;;;;;2.45;0.63;;;;;;;11.72;100.00;99382.28;6338597;22;20308;-57
2021/10/25 04:36:41;;;;;;;0.90;0.47;;;;;;;11.57;100.00;99370.47;6338822;22;20026;-57
2021/10/25 04:39:44;;;;;;;0.30;0.30;;;;;;;11.46;100.00;99381.50;6338940;22;20068;-57
2021/10/25 04:42:47;;;;;;;0.63;0.35;;;;;;;11.45;100.00;99380.00;6338189;22;20086;-58
2021/10/25 04:45:50;;;;;;;1.65;0.60;;;;;;;11.43;100.00;99388.09;6338860;22;20022;-58
2021/10/25 04:48:53;;;;;;;0.10;0.10;;;;;;;11.43;100.00;99388.09;6338903;22;20135;-58
2021/10/25 04:51:56;;;;;;;1.40;0.30;;;;;;;11.34;100.00;99391.03;6338901;22;20057;-57
2021/10/25 04:54:59;;;;;;;3.42;0.38;;;;;;;11.38;100.00;99388.81;6338441;22;20438;-58
2021/10/25 04:58:03;;;;;;;0.22;0.17;;;;;;;11.36;100.00;99377.38;6338730;22;20067;-57
2021/10/25 05:01:05;;;;;;;0.40;0.28;;;;;;;11.41;100.00;99371.09;6340647;22;20049;-57
2021/10/25 05:04:08;;;;;;;1.80;0.50;;;;;;;11.46;100.00;99375.94;6340685;22;20327;-58
2021/10/25 05:07:11;;;;;;;3.97;1.00;;;;;;;11.55;100.00;99384.13;6340658;22;20342;-58
2021/10/25 05:10:14;;;;;;;0.65;0.32;;;;;;;11.72;100.00;99379.50;6340536;22;20029;-59
2021/10/25 05:13:17;;;;;;;0.88;0.38;;;;;;;11.82;100.00;99378.06;6340686;22;20029;-58
2021/10/25 05:16:20;;;;;;;1.15;0.57;;;;;;;11.83;100.00;99381.59;6339989;22;20098;-58
2021/10/25 05:19:23;;;;;;;0.10;0.10;;;;;;;11.76;100.00;99370.91;6340589;22;20026;-58
2021/10/25 05:22:26;;;;;;;2.33;0.55;;;;;;;11.80;100.00;99375.00;6340180;22;20067;-58
2021/10/25 05:25:29;;;;;;;0.20;0.20;;;;;;;11.43;100.00;99383.25;6340124;22;20025;-58
2021/10/25 05:28:32;;;;;;;0.85;0.52;;;;;;;11.59;100.00;99379.09;6339336;22;20451;-58
2021/10/25 05:31:35;;;;;;;1.33;0.43;;;;;;;11.61;100.00;99382.16;6338558;22;20072;-58
2021/10/25 05:34:38;;;;;;;0.10;0.10;;;;;;;11.50;100.00;99382.06;6339347;22;20462;-58
2021/10/25 05:37:42;;;;;;;2.05;0.45;;;;;;;11.29;100.00;99386.94;6339381;22;20045;-58
2021/10/25 05:40:45;;;;;;;0.47;0.40;;;;;;;11.18;100.00;99386.06;6339770;22;20095;-58
2021/10/25 05:43:47;;;;;;;1.27;0.38;;;;;;;11.01;100.00;99390.69;6320974;22;20030;-58
2021/10/25 05:46:50;;;;;;;0.50;0.43;;;;;;;10.91;100.00;99381.72;6339657;22;20086;-58
2021/10/25 05:49:53;;;;;;;0.43;0.43;;;;;;;10.60;100.00;99374.00;6339882;22;20508;-58
2021/10/25 05:52:55;;;;;;;0.25;0.25;;;;;;;11.03;100.00;99377.81;6339739;22;20377;-58
2021/10/25 05:55:59;;;;;;;1.70;0.60;;;;;;;11.32;100.00;99371.25;6339862;22;20076;-58
2021/10/25 05:59:04;;;;;;;0.45;0.45;;;;;;;11.22;100.00;99372.66;6339880;22;20021;-58
2021/10/25 06:05:30;;;;;;;2.30;0.50;;;;;;;11.27;100.00;99374.75;6339594;22;20026;-58
2021/10/25 06:08:32;;;;;;;5.72;0.98;;;;;;;11.30;100.00;99374.53;6339283;22;20049;-58
2021/10/25 06:11:36;;;;;;;0.65;0.65;;;;;;;11.31;100.00;99370.50;6339015;22;20331;-58
2021/10/25 06:14:42;;;;;;;0.75;0.30;;;;;;;11.25;100.00;99368.91;6339413;22;20093;-58
2021/10/25 06:20:55;;;;;;;8.98;0.60;;;;;;;11.18;100.00;99363.75;6339072;22;20335;-58
2021/10/25 06:23:59;;;;;;;0.38;0.20;;;;;;;11.12;100.00;99360.16;6339858;22;20083;-58
2021/10/25 06:27:03;;;;;;;3.30;1.35;;;;;;;11.01;100.00;99362.81;6339853;22;20075;-58
2021/10/25 06:30:06;;;;;;;0.22;0.22;;;;;;;10.99;100.00;99363.31;6339655;22;20025;-58
2021/10/25 06:33:14;;;;;;;5.57;0.57;;;;;;;11.08;100.00;99359.63;6339954;22;20357;-58
2021/10/25 06:36:19;;;;;;;0.75;0.68;;;;;;;11.19;100.00;99362.50;6339555;22;20029;-58
2021/10/25 06:39:33;;;;;;;0.32;0.20;;;;;;;11.32;100.00;99362.91;6339453;22;20339;-59
2021/10/25 06:42:36;;;;;;;0.82;0.30;;;;;;;11.46;100.00;99364.03;6320337;22;20614;-58
2021/10/25 06:45:39;;;;;;;22.92;2.35;;;;;;;11.55;100.00;99367.41;6320029;22;20022;-59
2021/10/25 06:48:41;;;;;;;2.45;0.60;;;;;;;11.61;100.00;99370.25;6339510;22;20022;-58
2021/10/25 06:51:45;;;;;;;2.75;0.45;;;;;;;11.63;100.00;99371.28;6339383;22;20072;-58
2021/10/25 06:54:48;;;;;;;1.30;0.88;;;;;;;11.61;100.00;99379.38;6339217;22;20025;-58
2021/10/25 06:57:52;;;;;;;0.73;0.30;;;;;;;11.61;100.00;99384.94;6339457;22;20139;-58
2021/10/25 07:00:58;;;;;;;1.42;0.65;;;;;;;11.56;100.00;99385.69;6339138;22;20348;-59
2021/10/25 07:04:01;;;;;;;1.45;0.73;;;;;;;11.52;100.00;99393.47;6339580;22;20025;-59
2021/10/25 07:07:04;;;;;;;1.10;0.50;;;;;;;11.42;100.00;99386.56;6339664;22;20022;-59
2021/10/25 07:10:09;;;;;;;6.40;0.25;;;;;;;11.30;100.00;99394.03;6339373;22;20119;-59
2021/10/25 07:13:12;;;;;;;0.57;0.40;;;;;;;11.40;100.00;99389.06;6339645;22;20021;-59
2021/10/25 07:16:25;;;;;;;4.03;0.90;;;;;;;11.30;100.00;99402.41;6339384;22;20025;-59
2021/10/25 08:00:03;;;;;;;0.30;0.20;;;;;;;12.55;100.00;99430.34;6338281;22;20021;-58
2021/10/25 08:09:59;;;;;;;0.30;0.30;;;;;;;12.83;100.00;99438.84;6339165;22;20297;-58
2021/10/25 08:13:10;;;;;;;0.65;0.30;;;;;;;12.88;100.00;99440.91;6339261;22;20378;-58
2021/10/25 08:19:28;;;;;;;0.17;0.17;;;;;;;13.04;100.00;99443.00;6338983;22;20022;-58
2021/10/25 08:22:32;;;;;;;0.13;0.13;;;;;;;13.14;100.00;99447.16;6338874;22;20022;-59
2021/10/25 08:25:35;;;;;;;0.80;0.43;;;;;;;13.11;100.00;99436.97;6338718;22;20026;-59
2021/10/25 08:28:39;;;;;;;2.00;0.70;;;;;;;13.07;100.00;99447.63;6338330;22;20073;-59
2021/10/25 08:31:44;;;;;;;0.50;0.50;;;;;;;13.02;100.00;99441.97;6338602;22;20152;-59
2021/10/25 08:41:13;;;;;;;0.22;0.10;;;;;;;13.20;100.00;99439.53;6340970;22;20026;-59
2021/10/25 08:44:16;;;;;;;0.32;0.22;;;;;;;13.17;100.00;99440.53;6340835;22;20099;-59
2021/10/25 08:47:23;;;;;;;0.47;0.32;;;;;;;13.14;100.00;99447.16;6340701;22;20025;-59
2021/10/25 08:50:34;;;;;;;1.77;0.50;;;;;;;13.11;100.00;99441.78;6340794;22;20021;-59
2021/10/25 08:53:36;;;;;;;0.75;0.25;;;;;;;13.15;100.00;99447.91;6340365;22;20072;-59
2021/10/25 08:56:40;;;;;;;1.13;1.05;;;;;;;13.15;100.00;99454.25;6339826;22;20102;-59
2021/10/25 08:59:59;;;;;;;3.13;0.57;;;;;;;13.14;100.00;99458.34;6340165;22;20071;-59
2021/10/25 09:03:03;;;;;;;0.10;0.10;;;;;;;13.31;100.00;99463.97;6340262;22;20057;-59
2021/10/25 09:06:06;;;;;;;0.63;0.17;;;;;;;13.50;100.00;99474.22;6340237;22;20068;-59
2021/10/25 09:09:08;;;;;;;0.45;0.22;;;;;;;13.67;100.00;99465.84;6340790;22;20319;-59
2021/10/25 09:12:15;;;;;;;0.32;0.32;;;;;;;13.75;100.00;99469.69;6340483;22;20021;-59
2021/10/25 09:15:17;;;;;;;0.10;0.10;;;;;;;13.81;100.00;99469.69;6340414;22;20397;-59
2021/10/25 09:18:24;;;;;;;1.15;0.40;;;;;;;13.99;100.00;99475.53;6340526;22;20077;-59
2021/10/25 09:21:34;;;;;;;0.15;0.15;;;;;;;14.17;100.00;99468.69;6340616;22;20025;-59
2021/10/25 09:24:37;;;;;;;0.30;0.20;;;;;;;14.23;100.00;99472.25;6340347;22;20588;-59
2021/10/25 09:27:45;;;;;;;0.40;0.10;;;;;;;14.43;100.00;99472.00;6340164;22;20022;-59
2021/10/25 09:30:50;;;;;;;7.15;0.77;;;;;;;14.43;100.00;99469.19;6339974;22;20030;-59
2021/10/25 09:33:58;;;;;;;2.38;0.17;;;;;;;14.43;100.00;99464.38;6339216;22;20033;-60
2021/10/25 09:37:13;;;;;;;0.35;0.25;;;;;;;14.55;100.00;99465.13;6340231;22;20025;-59
2021/10/25 09:40:25;;;;;;;0.20;0.20;;;;;;;14.72;100.00;99468.66;6339748;22;20110;-58
2021/10/25 09:49:00;;;;;;;0.55;0.13;;;;;;;15.05;100.00;99457.31;6339654;22;20141;-59
2021/10/25 09:50:01;;;;;;;0.65;0.20;;;;;;;15.04;100.00;99460.66;6340066;22;20038;-59
2021/10/25 09:53:06;;;;;;;1.08;0.20;;;;;;;14.95;100.00;99455.31;6339678;22;20530;-59
2021/10/25 09:56:14;;;;;;;4.93;0.47;;;;;;;15.05;100.00;99454.50;6339790;22;20458;-59
2021/10/25 10:02:56;;;;;;;0.10;0.03;;;;;;;15.08;100.00;99452.72;6311486;22;20098;-59
2021/10/25 10:06:00;;;;;;;0.47;0.32;;;;;;;15.12;100.00;99456.78;6339978;22;20029;-59
2021/10/25 10:09:03;;;;;;;1.17;0.15;;;;;;;15.16;100.00;99448.84;6340408;22;20557;-59
2021/10/25 10:12:07;;;;;;;0.85;0.17;;;;;;;15.08;100.00;99461.91;6340184;22;20049;-59
2021/10/25 10:15:13;;;;;;;1.65;0.30;;;;;;;15.06;100.00;99461.66;6339856;22;20018;-57
2021/10/25 10:18:23;;;;;;;0.52;0.40;;;;;;;14.96;100.00;99454.81;6339837;22;20022;-58
2021/10/25 10:21:27;;;;;;;2.47;0.40;;;;;;;14.78;100.00;99471.44;6340001;22;20037;-59
2021/10/25 10:24:33;;;;;;;1.38;0.08;;;;;;;14.70;100.00;99473.25;6339626;22;20022;-59
2021/10/25 10:27:37;;;;;;;0.40;0.40;;;;;;;14.70;100.00;99471.22;6339389;22;20025;-59
2021/10/25 10:30:55;;;;;;;2.75;0.52;;;;;;;14.74;100.00;99477.31;6339706;22;20030;-60
2021/10/25 10:34:13;;;;;;;5.05;0.65;;;;;;;14.67;100.00;99471.47;6339970;22;20068;-58
2021/10/25 10:37:23;;;;;;;6.30;1.33;;;;;;;14.73;100.00;99481.38;6339867;22;20026;-58
2021/10/25 10:40:37;;;;;;;1.73;0.93;;;;;;;14.78;100.00;99477.03;6339732;22;20474;-59
2021/10/25 10:43:40;;;;;;;11.73;1.77;;;;;;;14.88;100.00;99489.50;6339859;22;20442;-58
2021/10/25 10:46:51;;;;;;;8.30;1.50;;;;;;;14.86;100.00;99490.00;6339534;22;20497;-58
2021/10/25 10:49:57;;;;;;;3.45;0.93;;;;;;;14.91;100.00;99491.28;6339403;22;20029;-58
2021/10/25 10:53:14;;;;;;;2.25;0.43;;;;;;;14.93;100.00;99489.50;6339074;22;20086;-57
2021/10/25 10:59:50;;;;;;;3.90;0.98;;;;;;;15.01;100.00;99490.47;6338900;22;20655;-58
2021/10/25 11:03:08;;;;;;;5.43;1.10;;;;;;;15.12;100.00;99481.25;6339546;22;20040;-58
2021/10/25 11:06:17;;;;;;;0.68;0.28;;;;;;;15.13;100.00;99474.38;6320402;22;20080;-58
2021/10/25 11:09:21;;;;;;;2.72;0.80;;;;;;;15.21;100.00;99480.97;6339581;22;20363;-57
2021/10/25 11:12:26;;;;;;;5.65;0.60;;;;;;;15.28;100.00;99479.66;6339642;22;20036;-58
2021/10/25 11:15:39;;;;;;;0.20;0.20;;;;;;;15.10;100.00;99469.78;6339304;22;20068;-58
2021/10/25 11:18:54;;;;;;;1.33;0.28;;;;;;;14.90;100.00;99478.56;6339537;22;20025;-58
2021/10/25 11:22:01;;;;;;;0.47;0.30;;;;;;;14.76;100.00;99480.38;6339432;22;20033;-58
2021/10/25 11:25:09;;;;;;;2.00;0.55;;;;;;;14.74;100.00;99482.91;6339312;22;20026;-59
2021/10/25 11:28:18;;;;;;;1.27;0.43;;;;;;;14.82;100.00;99488.75;6339212;22;20075;-58
2021/10/25 11:31:22;;;;;;;0.20;0.20;;;;;;;14.86;100.00;99481.59;6338862;22;20096;-58
2021/10/25 11:34:26;;;;;;;0.50;0.15;;;;;;;14.99;100.00;99484.63;6338971;22;20021;-59
2021/10/25 11:37:29;;;;;;;0.85;0.30;;;;;;;15.24;100.00;99490.41;6339314;22;20028;-58
2021/10/25 11:40:32;;;;;;;4.55;0.30;;;;;;;15.43;100.00;99502.56;6338834;22;20381;-58
2021/10/25 11:43:35;;;;;;;0.45;0.20;;;;;;;15.59;100.00;99496.88;6338619;22;20512;-58
2021/10/25 11:46:38;;;;;;;0.93;0.75;;;;;;;15.63;100.00;99491.00;6339312;22;20021;-58
2021/10/25 11:49:41;;;;;;;0.10;0.00;;;;;;;15.63;100.00;99491.00;6338921;22;20029;-58
2021/10/25 11:52:55;;;;;;;0.30;0.20;;;;;;;15.77;100.00;99487.84;6339082;22;20447;-58
2021/10/25 11:55:58;;;;;;;2.15;0.32;;;;;;;15.79;100.00;99478.91;6338971;22;20075;-57
2021/10/25 11:59:02;;;;;;;0.70;0.08;;;;;;;15.68;100.00;99481.81;6338757;22;20022;-56
2021/10/25 12:02:14;;;;;;;0.65;0.25;;;;;;;15.65;100.00;99489.22;6338339;22;20022;-57
2021/10/25 12:05:23;;;;;;;0.88;0.30;;;;;;;15.82;100.00;99486.28;6338597;22;20025;-57
2021/10/25 12:08:26;;;;;;;2.55;0.10;;;;;;;15.93;100.00;99486.22;6338560;22;20080;-57
2021/10/25 12:15:04;;;;;;;0.63;0.20;;;;;;;15.82;100.00;99489.88;6337947;22;20021;-57
2021/10/25 12:18:13;;;;;;;1.95;0.75;;;;;;;15.77;100.00;99492.69;6339130;22;20026;-56
2021/10/25 12:21:16;;;;;;;6.03;0.17;;;;;;;15.73;100.00;99486.59;6338631;22;20038;-56
2021/10/25 12:24:21;;;;;;;0.45;0.45;;;;;;;15.77;100.00;99484.28;6339034;22;20041;-56
2021/10/25 12:27:32;;;;;;;6.85;2.17;;;;;;;15.85;100.00;99488.06;6338856;22;20023;-56
2021/10/25 12:30:36;;;;;;;;;;;;;;;15.86;100.00;99484.72;6339263;22;20025;-56
2021/10/25 12:33:42;;;;;;;0.20;0.10;;;;;;;16.00;100.00;99493.31;6319260;22;19952;-56
2021/10/25 12:36:46;;;;;;;1.13;0.05;;;;;;;15.88;100.00;99495.44;6338260;22;20097;-56
2021/10/25 12:39:51;;;;;;;5.05;0.52;;;;;;;15.87;100.00;99491.13;6338526;22;20204;-56
2021/10/25 12:43:00;;;;;;;0.28;0.20;;;;;;;15.76;100.00;99496.81;6338138;22;20347;-56
2021/10/25 12:46:06;;;;;;;2.38;0.20;;;;;;;15.73;100.00;99495.03;6338590;22;20025;-58
2021/10/25 12:49:17;;;;;;;1.58;0.73;;;;;;;15.61;100.00;99496.38;6338854;22;20461;-59
2021/10/25 12:52:21;;;;;;;0.55;0.25;;;;;;;15.60;100.00;99489.22;6338953;22;20094;-56
2021/10/25 12:55:25;;;;;;;2.17;0.45;;;;;;;15.64;100.00;99484.09;6337900;22;20068;-56
2021/10/25 12:58:28;;;;;;;0.30;0.22;;;;;;;15.61;100.00;99485.16;6338242;22;20076;-56
2021/10/25 13:01:32;;;;;;;0.25;0.20;;;;;;;15.73;100.00;99483.78;6338213;22;20462;-56
2021/10/25 13:04:36;;;;;;;4.03;0.20;;;;;;;15.68;100.00;99485.34;6338036;22;20088;-55
2021/10/25 13:07:56;;;;;;;0.98;0.10;;;;;;;15.74;100.00;99482.53;6338077;22;20398;-55
2021/10/25 13:11:00;;;;;;;0.95;0.57;;;;;;;15.73;100.00;99481.75;6338827;22;20128;-56
2021/10/25 13:14:05;;;;;;;1.27;0.05;;;;;;;15.71;100.00;99473.09;6338861;22;20053;-56
2021/10/25 13:17:09;;;;;;;0.85;0.38;;;;;;;15.59;100.00;99477.22;6338697;22;20029;-56
2021/10/25 13:20:17;;;;;;;0.08;0.05;;;;;;;15.41;100.00;99479.88;6339055;22;20152;-58
2021/10/25 13:23:23;;;;;;;0.10;0.10;;;;;;;15.37;100.00;99473.78;6339726;22;20057;-56
2021/10/25 13:26:27;;;;;;;1.95;0.20;;;;;;;15.36;100.00;99475.81;6340192;22;20079;-56
2021/10/25 13:29:30;;;;;;;0.10;0.10;;;;;;;15.41;100.00;99469.41;6339667;22;20064;-55
2021/10/25 13:32:33;;;;;;;0.10;0.00;;;;;;;15.26;100.00;99459.78;6320493;22;20026;-55
2021/10/25 13:35:36;;;;;;;0.70;0.30;;;;;;;15.16;100.00;99462.88;6339426;22;20022;-55
2021/10/25 13:38:39;;;;;;;1.27;0.93;;;;;;;15.08;100.00;99453.50;6338387;22;20021;-56
2021/10/25 13:41:42;;;;;;;0.10;0.10;;;;;;;15.02;100.00;99463.97;6338649;22;20022;-56
2021/10/25 13:44:45;;;;;;;1.75;0.20;;;;;;;14.72;100.00;99459.47;6339590;22;20022;-56
2021/10/25 13:47:48;;;;;;;0.20;0.20;;;;;;;14.82;100.00;99453.06;6339696;22;20057;-56
2021/10/25 13:50:53;;;;;;;0.82;0.45;;;;;;;14.75;100.00;99458.47;6339634;22;20080;-56
2021/10/25 13:53:56;;;;;;;1.10;0.30;;;;;;;14.78;100.00;99457.41;6339475;22;20025;-55
2021/10/25 13:57:00;;;;;;;2.08;0.63;;;;;;;14.77;100.00;99451.03;6339876;22;20025;-56
2021/10/25 14:00:11;;;;;;;0.10;0.00;;;;;;;14.98;100.00;99445.88;6339780;22;20030;-56
2021/10/25 14:03:14;;;;;;;1.55;0.10;;;;;;;15.16;100.00;99451.66;6339801;22;20022;-55
2021/10/25 14:06:24;;;;;;;1.08;0.03;;;;;;;15.10;100.00;99453.75;6339459;22;20025;-56
2021/10/25 14:09:27;;;;;;;2.10;0.30;;;;;;;14.98;100.00;99455.06;6339149;22;20095;-56
2021/10/25 14:12:31;;;;;;;0.25;0.22;;;;;;;14.93;100.00;99461.44;6339415;22;20021;-55
2021/10/25 14:15:44;;;;;;;0.68;0.17;;;;;;;14.98;100.00;99457.09;6339521;22;20145;-55
2021/10/25 14:18:48;;;;;;;3.40;0.40;;;;;;;15.11;100.00;99460.13;6340036;22;20041;-55
2021/10/25 14:21:51;;;;;;;3.17;0.40;;;;;;;15.26;100.00;99454.94;6339697;22;20106;-56
2021/10/25 14:24:54;;;;;;;0.13;0.10;;;;;;;15.41;100.00;99454.59;6339134;22;20316;-56
2021/10/25 14:27:58;;;;;;;3.28;0.28;;;;;;;15.69;100.00;99458.81;6339167;22;20523;-57
2021/10/25 14:31:01;;;;;;;2.13;0.10;;;;;;;15.88;100.00;99453.31;6339479;22;20072;-56
2021/10/25 14:34:05;;;;;;;0.65;0.63;;;;;;;15.80;100.00;99463.59;6339259;22;20100;-56
2021/10/25 14:37:08;;;;;;;0.20;0.10;;;;;;;15.71;100.00;99467.47;6320875;22;20102;-56
2021/10/25 14:40:13;;;;;;;3.30;0.38;;;;;;;15.67;100.00;99463.41;6339495;22;20068;-56
2021/10/25 14:43:20;;;;;;;0.95;0.63;;;;;;;15.71;100.00;99463.91;6339421;22;20025;-57
2021/10/25 14:56:21;;;;;;;0.20;0.20;;;;;;;15.75;100.00;99467.19;6338986;22;20030;-56
2021/10/25 14:59:24;;;;;;;4.22;0.73;;;;;;;15.44;100.00;99476.06;6339067;22;20021;-58
2021/10/25 15:02:28;;;;;;;0.20;0.20;;;;;;;15.04;100.00;99481.06;6338684;22;20026;-59
2021/10/25 15:05:30;;;;;;;3.20;0.55;;;;;;;14.76;100.00;99485.19;6338775;22;20025;-58
2021/10/25 15:08:33;;;;;;;0.65;0.52;;;;;;;14.48;100.00;99479.66;6339135;22;20140;-58
2021/10/25 15:11:37;;;;;;;0.40;0.10;;;;;;;14.29;100.00;99484.25;6338700;22;20494;-58
2021/10/25 15:14:41;;;;;;;0.10;0.10;;;;;;;14.23;100.00;99483.44;6339170;22;20075;-58
2021/10/25 15:17:46;;;;;;;7.82;0.30;;;;;;;14.03;100.00;99481.69;6338859;22;20026;-58
2021/10/25 15:20:50;;;;;;;0.65;0.52;;;;;;;13.84;100.00;99480.63;6339338;22;20074;-59
2021/10/25 15:23:53;;;;;;;1.17;0.65;;;;;;;13.78;100.00;99481.88;6338829;22;20023;-57
2021/10/25 15:26:56;;;;;;;2.58;0.20;;;;;;;13.57;100.00;99484.16;6338873;22;20068;-58
2021/10/25 15:29:59;;;;;;;1.85;0.93;;;;;;;13.45;100.00;99480.53;6338497;22;20108;-56
2021/10/25 15:33:04;;;;;;;0.85;0.13;;;;;;;13.30;100.00;99482.78;6339246;22;20021;-57
2021/10/25 15:36:07;;;;;;;0.20;0.20;;;;;;;13.16;100.00;99478.16;6338558;22;20045;-57
2021/10/25 15:39:10;;;;;;;1.27;0.30;;;;;;;13.00;100.00;99487.19;6338796;22;20319;-57
2021/10/25 15:42:15;;;;;;;0.90;0.38;;;;;;;12.91;100.00;99496.56;6338540;22;20021;-57
2021/10/25 15:45:18;;;;;;;0.70;0.40;;;;;;;12.82;100.00;99487.63;6338743;22;20026;-56
2021/10/25 15:48:21;;;;;;;4.78;0.45;;;;;;;12.66;100.00;99491.09;6338599;22;20036;-57
2021/10/25 15:51:24;;;;;;;13.25;1.00;;;;;;;12.62;100.00;99487.75;6338838;22;20071;-57
2021/10/25 15:54:27;;;;;;;1.45;0.50;;;;;;;12.75;100.00;99490.91;6338556;22;20091;-57
2021/10/25 15:57:31;;;;;;;0.38;0.30;;;;;;;12.91;100.00;99499.34;6338501;22;20075;-57
2021/10/25 16:00:34;;;;;;;2.60;0.47;;;;;;;12.98;100.00;99500.91;6319035;22;20098;-55
2021/10/25 16:03:37;;;;;;;2.47;0.88;;;;;;;13.17;100.00;99502.06;6338398;22;20072;-55
2021/10/25 16:06:40;;;;;;;9.38;0.70;;;;;;;13.35;100.00;99506.44;6319561;22;20029;-55
2021/10/25 16:09:43;;;;;;;6.63;0.98;;;;;;;13.33;100.00;99500.59;6338507;22;20356;-56
2021/10/25 16:12:47;;;;;;;0.73;0.32;;;;;;;13.16;100.00;99506.13;6338690;22;20037;-56
2021/10/25 16:15:50;;;;;;;1.65;0.30;;;;;;;12.96;100.00;99500.66;6338362;22;20018;-55
2021/10/25 16:18:53;;;;;;;0.30;0.30;;;;;;;12.85;100.00;99503.38;6338686;22;20515;-56
2021/10/25 16:21:59;;;;;;;0.38;0.15;;;;;;;12.80;100.00;99501.31;6338558;22;20064;-56